Time;durP1;ratioP1;P1;durP2;ratioP2;P2;SDS_P1;SDS_P2;PMS_P1;PMS_P2;Temp;Humidity;BMP_temperature;BMP_pressure;BME280_temperature;BME280_humidity;BME280_pressure;Samples;Min_cycle;Max_cycle;Signal;HPM_P1;HPM_P2
2021/03/28 00:01:00;;;;;;;22.00;4.05;;;;;;;5.18;100.00;102709.44;5254208;28;20027;-77
2021/03/28 00:03:36;;;;;;;14.00;4.25;;;;;;;5.21;100.00;102717.22;5267106;28;20463;-77
2021/03/28 00:06:14;;;;;;;20.70;4.55;;;;;;;5.25;100.00;102715.25;5267004;28;20028;-78
2021/03/28 00:09:01;;;;;;;23.83;4.25;;;;;;;5.33;100.00;102721.00;5267632;28;20028;-77
2021/03/28 00:11:36;;;;;;;21.45;4.43;;;;;;;5.39;100.00;102716.19;5267071;28;20081;-77
2021/03/28 00:14:07;;;;;;;21.95;4.50;;;;;;;5.43;100.00;102712.41;5267175;28;20107;-78
2021/03/28 00:16:46;;;;;;;17.63;3.95;;;;;;;5.48;100.00;102708.63;5267845;28;20151;-78
2021/03/28 00:19:25;;;;;;;20.60;4.40;;;;;;;5.48;100.00;102709.50;5267962;28;20028;-77
2021/03/28 00:21:59;;;;;;;22.50;3.97;;;;;;;5.50;100.00;102699.59;5267788;28;20028;-77
2021/03/28 00:24:32;;;;;;;20.70;3.95;;;;;;;5.45;100.00;102709.66;5266727;28;20066;-78
2021/03/28 00:27:13;;;;;;;21.42;4.68;;;;;;;5.35;100.00;102698.66;5266185;28;20028;-78
2021/03/28 00:29:49;;;;;;;17.35;3.97;;;;;;;5.16;100.00;102690.84;5266432;28;20024;-78
2021/03/28 00:32:37;;;;;;;28.33;5.00;;;;;;;4.99;100.00;102690.97;5266043;28;20516;-78
2021/03/28 00:35:12;;;;;;;14.43;4.30;;;;;;;4.84;100.00;102690.00;5264811;28;20028;-77
2021/03/28 00:37:44;;;;;;;;;;;;;;;4.74;100.00;102683.47;5265824;28;20032;-76
2021/03/28 00:40:21;;;;;;;19.23;4.47;;;;;;;4.63;100.00;102692.03;5266744;28;19915;-77
2021/03/28 00:43:09;;;;;;;15.52;3.50;;;;;;;4.55;100.00;102683.59;5266348;28;20024;-77
2021/03/28 00:45:39;;;;;;;16.33;4.15;;;;;;;4.51;100.00;102679.38;5266212;28;20020;-77
2021/03/28 00:48:17;;;;;;;14.68;3.90;;;;;;;4.45;100.00;102686.84;5265791;28;20401;-77
2021/03/28 00:51:13;;;;;;;12.50;3.83;;;;;;;4.37;100.00;102679.28;5266492;28;20111;-77
2021/03/28 00:53:49;;;;;;;19.83;4.35;;;;;;;4.35;100.00;102674.03;5265583;28;20023;-77
2021/03/28 00:56:40;;;;;;;24.98;3.85;;;;;;;4.36;100.00;102673.09;5263389;28;20069;-77
2021/03/28 00:59:24;;;;;;;14.68;4.25;;;;;;;4.31;100.00;102669.81;5265636;28;20034;-77
2021/03/28 01:02:10;;;;;;;20.55;3.55;;;;;;;4.25;100.00;102661.31;5265831;28;20024;-77
2021/03/28 01:04:50;;;;;;;27.40;5.45;;;;;;;4.20;100.00;102660.69;5266592;28;20030;-77
2021/03/28 01:07:33;;;;;;;16.05;3.83;;;;;;;4.12;100.00;102661.97;5266587;28;20032;-78
2021/03/28 01:10:16;;;;;;;22.52;3.85;;;;;;;4.08;100.00;102657.75;5263124;28;20032;-78
2021/03/28 01:13:25;;;;;;;23.77;5.82;;;;;;;4.06;100.00;102650.78;5256941;28;20036;-78
2021/03/28 01:16:15;;;;;;;23.58;4.13;;;;;;;4.03;100.00;102654.47;5257806;28;20035;-78
2021/03/28 01:19:15;;;;;;;19.80;3.65;;;;;;;4.01;100.00;102652.84;5265711;28;20023;-77
2021/03/28 01:21:52;;;;;;;18.60;4.03;;;;;;;3.97;100.00;102635.38;5266271;28;20385;-77
2021/03/28 01:24:50;;;;;;;11.68;3.40;;;;;;;3.95;100.00;102640.72;5265822;28;20497;-77
2021/03/28 01:27:33;;;;;;;18.65;3.47;;;;;;;3.95;100.00;102642.53;5265940;28;20059;-77
2021/03/28 01:30:13;;;;;;;27.67;3.70;;;;;;;3.95;100.00;102631.91;5266021;28;20477;-77
2021/03/28 01:32:46;;;;;;;18.13;4.05;;;;;;;3.98;100.00;102637.06;5268168;28;20127;-76
2021/03/28 01:35:26;;;;;;;22.92;3.53;;;;;;;4.04;100.00;102628.78;5268375;28;20078;-75
2021/03/28 01:38:03;;;;;;;21.95;5.00;;;;;;;4.02;100.00;102633.31;5266680;28;20039;-77
2021/03/28 01:40:44;;;;;;;14.95;3.80;;;;;;;4.05;100.00;102638.47;5267502;28;20024;-78
2021/03/28 01:43:46;;;;;;;16.45;3.83;;;;;;;4.02;100.00;102630.66;5265663;28;20046;-78
2021/03/28 01:46:29;;;;;;;11.60;3.00;;;;;;;4.05;100.00;102627.84;5252240;28;20034;-78
2021/03/28 01:49:31;;;;;;;16.80;5.53;;;;;;;4.06;100.00;102627.75;5265700;28;20089;-78
2021/03/28 01:52:06;;;;;;;16.52;3.05;;;;;;;4.04;100.00;102623.47;5268042;28;20107;-77
2021/03/28 01:54:48;;;;;;;17.77;3.72;;;;;;;4.05;100.00;102617.22;5267683;28;20035;-77
2021/03/28 01:57:46;;;;;;;22.80;4.47;;;;;;;4.05;100.00;102620.72;5266057;28;20031;-77
2021/03/28 02:00:29;;;;;;;21.77;3.17;;;;;;;4.07;100.00;102624.19;5267174;28;20089;-78
2021/03/28 02:03:09;;;;;;;17.88;3.45;;;;;;;4.08;100.00;102628.53;5269706;28;20492;-78
2021/03/28 02:05:54;;;;;;;13.63;2.88;;;;;;;4.07;100.00;102624.19;5269874;28;20020;-78
2021/03/28 02:08:49;;;;;;;8.25;2.97;;;;;;;4.15;100.00;102624.59;5268632;28;20035;-78
2021/03/28 02:11:35;;;;;;;16.48;2.97;;;;;;;4.17;100.00;102619.22;5269583;28;20051;-77
2021/03/28 02:14:22;;;;;;;11.50;3.35;;;;;;;4.23;100.00;102616.25;5269333;28;20037;-77
2021/03/28 02:17:03;;;;;;;17.90;3.33;;;;;;;4.35;100.00;102620.03;5269988;28;20362;-77
2021/03/28 02:19:37;;;;;;;9.98;2.33;;;;;;;4.46;100.00;102616.78;5268960;28;20031;-77
2021/03/28 02:22:32;;;;;;;11.90;2.80;;;;;;;4.66;100.00;102621.88;5272703;28;20426;-76
2021/03/28 02:25:22;;;;;;;12.90;2.95;;;;;;;4.85;100.00;102617.25;5273018;28;20020;-77
2021/03/28 02:28:10;;;;;;;15.68;3.10;;;;;;;4.95;100.00;102617.59;5271972;28;20107;-77
2021/03/28 02:30:42;;;;;;;12.30;2.55;;;;;;;4.99;100.00;102627.13;5269236;28;20073;-77
2021/03/28 02:33:15;;;;;;;12.35;2.33;;;;;;;4.99;100.00;102618.28;5268958;28;20031;-77
2021/03/28 02:35:56;;;;;;;11.63;2.97;;;;;;;4.98;100.00;102617.44;5269143;28;20031;-77
2021/03/28 02:38:51;;;;;;;11.80;2.30;;;;;;;4.94;100.00;102627.38;5269185;28;20526;-77
2021/03/28 02:41:44;;;;;;;13.00;2.83;;;;;;;4.90;100.00;102625.81;5267639;28;20546;-77
2021/03/28 02:44:22;;;;;;;10.48;2.90;;;;;;;4.87;100.00;102628.69;5268398;28;20028;-77
2021/03/28 02:47:00;;;;;;;16.08;3.35;;;;;;;4.88;100.00;102616.22;5269070;28;20045;-77
2021/03/28 02:49:31;;;;;;;6.70;2.30;;;;;;;4.83;100.00;102608.50;5271819;28;20043;-77
2021/03/28 02:52:03;;;;;;;12.57;3.03;;;;;;;4.75;100.00;102609.88;5268737;28;20037;-77
2021/03/28 02:54:43;;;;;;;10.45;2.78;;;;;;;4.70;100.00;102618.09;5268477;28;20111;-77
2021/03/28 02:57:23;;;;;;;15.48;3.03;;;;;;;4.63;100.00;102612.28;5268882;28;20149;-77
2021/03/28 03:00:11;;;;;;;8.65;2.22;;;;;;;4.58;100.00;102606.34;5268591;28;20032;-77
2021/03/28 03:03:05;;;;;;;12.57;3.08;;;;;;;4.54;100.00;102595.97;5256941;28;20509;-77
2021/03/28 03:05:50;;;;;;;10.05;2.33;;;;;;;4.51;100.00;102607.63;5267028;28;20040;-77
2021/03/28 03:08:31;;;;;;;17.17;3.55;;;;;;;4.55;100.00;102603.00;5269306;28;20092;-77
2021/03/28 03:11:10;;;;;;;14.02;3.97;;;;;;;4.56;100.00;102612.69;5256992;28;20081;-78
2021/03/28 03:13:58;;;;;;;10.27;2.85;;;;;;;4.59;100.00;102601.91;5266180;28;20040;-77
2021/03/28 03:16:52;;;;;;;23.60;3.47;;;;;;;4.66;100.00;102614.75;5268403;28;20513;-78
2021/03/28 03:19:42;;;;;;;10.43;2.50;;;;;;;4.76;100.00;102609.78;5268272;28;20028;-77
2021/03/28 03:22:29;;;;;;;6.28;2.33;;;;;;;4.90;100.00;102612.53;5267253;28;20035;-77
2021/03/28 03:25:33;;;;;;;16.15;3.00;;;;;;;4.98;100.00;102608.59;5267891;28;20024;-77
2021/03/28 03:28:03;;;;;;;17.45;3.60;;;;;;;5.05;100.00;102607.28;5267975;28;20032;-77
2021/03/28 03:30:57;;;;;;;9.93;2.67;;;;;;;5.12;100.00;102598.00;5267791;28;20393;-78
2021/03/28 03:33:52;;;;;;;10.45;2.63;;;;;;;5.22;100.00;102593.88;5256268;28;20420;-78
2021/03/28 03:36:38;;;;;;;11.38;2.55;;;;;;;5.31;100.00;102585.34;5268088;28;20024;-78
2021/03/28 03:39:25;;;;;;;11.85;2.15;;;;;;;5.39;100.00;102590.22;5265742;28;20153;-77
2021/03/28 03:42:07;;;;;;;15.57;2.80;;;;;;;5.48;100.00;102584.38;5269460;28;20024;-78
2021/03/28 03:45:16;;;;;;;19.88;4.63;;;;;;;5.55;100.00;102584.84;5272229;28;20024;-78
2021/03/28 03:47:56;;;;;;;10.55;2.72;;;;;;;5.62;100.00;102573.75;5272723;28;20024;-77
2021/03/28 03:50:55;;;;;;;15.30;2.78;;;;;;;5.71;100.00;102575.00;5270157;28;20023;-78
2021/03/28 03:53:32;;;;;;;6.50;2.05;;;;;;;5.78;100.00;102568.38;5268791;28;20365;-78
2021/03/28 03:56:11;;;;;;;10.88;2.75;;;;;;;5.82;100.00;102575.19;5267326;28;20106;-78
2021/03/28 03:59:02;;;;;;;16.88;2.67;;;;;;;5.86;100.00;102584.72;5267666;28;20060;-78
2021/03/28 04:01:46;;;;;;;12.75;2.35;;;;;;;5.94;100.00;102576.31;5267385;28;20028;-78
2021/03/28 04:04:28;;;;;;;8.52;2.60;;;;;;;6.02;100.00;102582.00;5284071;28;20012;-78
2021/03/28 04:07:23;;;;;;;10.45;3.03;;;;;;;6.04;100.00;102582.78;5268045;28;20028;-77
2021/03/28 04:10:15;;;;;;;12.07;2.75;;;;;;;6.16;100.00;102590.00;5267272;28;20032;-78
2021/03/28 04:13:03;;;;;;;12.25;2.30;;;;;;;6.21;100.00;102584.38;5268776;28;20060;-78
2021/03/28 04:16:01;;;;;;;13.63;2.33;;;;;;;6.31;100.00;102582.84;5255612;28;20036;-78
2021/03/28 04:18:53;;;;;;;8.90;1.73;;;;;;;6.34;100.00;102588.00;5267498;28;20031;-77
2021/03/28 04:21:37;;;;;;;8.35;2.10;;;;;;;6.41;100.00;102586.66;5266868;28;20024;-78
2021/03/28 04:24:16;;;;;;;14.73;2.25;;;;;;;6.41;100.00;102586.66;5267930;28;20431;-78
2021/03/28 04:26:52;;;;;;;11.43;3.10;;;;;;;6.49;100.00;102583.53;5268486;28;20028;-78
2021/03/28 04:29:23;;;;;;;9.20;2.63;;;;;;;6.56;100.00;102584.84;5271319;28;20030;-78
2021/03/28 04:31:57;;;;;;;11.60;2.45;;;;;;;6.62;100.00;102587.09;5271407;28;20031;-77
2021/03/28 04:34:38;;;;;;;12.60;2.57;;;;;;;6.70;100.00;102581.28;5270833;28;20028;-76
2021/03/28 04:37:24;;;;;;;7.30;2.42;;;;;;;6.71;100.00;102583.00;5270942;28;20058;-76
2021/03/28 04:40:15;;;;;;;;;;;;;;;6.73;100.00;102584.63;5269651;28;20485;-78
2021/03/28 04:42:51;;;;;;;7.57;2.25;;;;;;;6.81;100.00;102589.44;5266775;28;19908;-78
2021/03/28 04:45:55;;;;;;;13.18;2.28;;;;;;;6.77;100.00;102590.59;5266279;28;20362;-78
2021/03/28 04:48:55;;;;;;;10.45;3.10;;;;;;;6.74;100.00;102588.16;5266274;28;20486;-78
2021/03/28 04:51:56;;;;;;;13.43;2.45;;;;;;;6.70;100.00;102583.97;5255822;28;20055;-78
2021/03/28 04:54:53;;;;;;;10.65;3.10;;;;;;;6.72;100.00;102584.69;5251036;28;20112;-79
2021/03/28 04:57:44;;;;;;;13.50;2.78;;;;;;;6.70;100.00;102579.47;5266945;28;20048;-78
2021/03/28 05:00:26;;;;;;;11.10;2.55;;;;;;;6.70;100.00;102584.81;5271986;28;20077;-78
2021/03/28 05:03:15;;;;;;;7.55;2.28;;;;;;;6.62;100.00;102578.25;5268579;28;20035;-77
2021/03/28 05:06:14;;;;;;;12.13;2.50;;;;;;;6.55;100.00;102583.13;5266458;28;20032;-76
2021/03/28 05:09:10;;;;;;;14.93;2.63;;;;;;;6.54;100.00;102592.09;5266849;28;20023;-78
2021/03/28 05:11:58;;;;;;;8.60;2.47;;;;;;;6.54;100.00;102585.91;5270606;28;20039;-76
2021/03/28 05:14:42;;;;;;;12.80;2.60;;;;;;;6.48;100.00;102584.47;5270401;28;20028;-78
2021/03/28 05:17:47;;;;;;;10.75;2.40;;;;;;;6.47;100.00;102591.59;5270757;28;20035;-78
2021/03/28 05:20:23;;;;;;;12.50;3.45;;;;;;;6.42;100.00;102599.03;5252376;28;20016;-77
2021/03/28 05:23:24;;;;;;;8.82;2.70;;;;;;;6.41;100.00;102602.66;5267861;28;20405;-77
2021/03/28 05:26:26;;;;;;;12.13;3.42;;;;;;;6.38;100.00;102596.69;5265938;28;20027;-77
2021/03/28 05:29:28;;;;;;;14.77;3.20;;;;;;;6.37;100.00;102597.59;5267664;28;20426;-77
2021/03/28 05:32:33;;;;;;;21.00;4.88;;;;;;;6.34;100.00;102593.34;5254528;28;20050;-77
2021/03/28 05:35:24;;;;;;;17.98;4.90;;;;;;;6.35;100.00;102595.03;5268320;28;20028;-76
2021/03/28 05:38:34;;;;;;;16.42;4.55;;;;;;;6.35;100.00;102599.53;5271540;28;20016;-77
2021/03/28 05:41:34;;;;;;;13.82;4.07;;;;;;;6.38;100.00;102592.19;5270242;28;20032;-78
2021/03/28 05:44:20;;;;;;;9.27;3.10;;;;;;;6.43;100.00;102592.78;5265644;28;20020;-76
2021/03/28 05:47:01;;;;;;;10.48;3.25;;;;;;;6.44;100.00;102590.97;5269908;28;20392;-77
2021/03/28 05:49:41;;;;;;;14.63;3.67;;;;;;;6.46;100.00;102586.38;5254084;28;20064;-77
2021/03/28 05:52:24;;;;;;;9.70;2.70;;;;;;;6.50;100.00;102587.91;5264358;28;20036;-78
2021/03/28 05:55:17;;;;;;;10.13;3.05;;;;;;;6.55;100.00;102587.59;5266578;28;20020;-79
2021/03/28 05:58:06;;;;;;;14.77;3.20;;;;;;;6.59;100.00;102595.31;5257971;28;20030;-79
2021/03/28 06:01:00;;;;;;;15.10;3.42;;;;;;;6.59;100.00;102595.31;5270197;28;20507;-78
2021/03/28 06:03:52;;;;;;;14.93;3.42;;;;;;;6.65;100.00;102594.91;5269854;28;20024;-79
2021/03/28 06:06:42;;;;;;;17.40;4.47;;;;;;;6.76;100.00;102602.22;5270434;28;20036;-79
2021/03/28 06:09:28;;;;;;;16.92;3.42;;;;;;;6.79;100.00;102601.19;5269183;28;20028;-79
2021/03/28 06:12:20;;;;;;;13.23;4.05;;;;;;;6.86;100.00;102606.00;5265275;28;20028;-78
2021/03/28 06:15:03;;;;;;;10.10;3.88;;;;;;;6.93;100.00;102596.66;5270051;28;20393;-78
2021/03/28 06:17:54;;;;;;;14.90;4.00;;;;;;;7.00;100.00;102600.63;5267327;28;20024;-78
2021/03/28 06:20:50;;;;;;;11.93;3.70;;;;;;;7.09;100.00;102609.88;5259614;28;20032;-78
2021/03/28 06:23:21;;;;;;;12.30;3.97;;;;;;;7.16;100.00;102602.28;5270652;28;20566;-78
2021/03/28 06:25:58;;;;;;;12.73;3.65;;;;;;;7.27;100.00;102597.94;5270265;28;20036;-77
2021/03/28 06:29:02;;;;;;;13.57;3.50;;;;;;;7.46;100.00;102599.41;5270133;28;20447;-77
2021/03/28 06:32:06;;;;;;;18.73;4.93;;;;;;;7.67;100.00;102599.75;5271179;28;20110;-77
2021/03/28 06:34:46;;;;;;;13.52;3.65;;;;;;;7.96;100.00;102603.94;5271828;28;20031;-77
2021/03/28 06:37:43;;;;;;;16.98;3.63;;;;;;;8.14;100.00;102607.19;5270514;28;20392;-79
2021/03/28 06:40:41;;;;;;;12.15;3.42;;;;;;;8.32;100.00;102613.03;5268164;28;20393;-79
2021/03/28 06:43:21;;;;;;;13.57;3.05;;;;;;;8.43;100.00;102615.81;5268848;28;20035;-79
2021/03/28 06:46:12;;;;;;;15.40;3.75;;;;;;;8.55;100.00;102628.34;5270287;28;20106;-79
2021/03/28 06:48:56;;;;;;;14.63;3.88;;;;;;;8.62;100.00;102622.53;5261703;28;20028;-81
2021/03/28 06:51:42;;;;;;;13.55;3.85;;;;;;;8.64;100.00;102620.63;5267531;28;20493;-78
2021/03/28 06:54:47;;;;;;;12.95;3.20;;;;;;;8.70;100.00;102621.03;5267498;28;20035;-77
2021/03/28 06:57:31;;;;;;;11.95;3.08;;;;;;;8.69;100.00;102622.00;5267946;28;20031;-79
2021/03/28 07:00:02;;;;;;;18.98;3.42;;;;;;;8.75;100.00;102632.25;5267980;28;20055;-78
2021/03/28 07:03:08;;;;;;;15.35;3.83;;;;;;;8.92;100.00;102630.16;5267289;28;20549;-77
2021/03/28 07:05:51;;;;;;;22.20;5.15;;;;;;;9.21;100.00;102634.22;5267957;28;20490;-78
2021/03/28 07:08:23;;;;;;;11.20;3.20;;;;;;;9.46;100.00;102637.75;5268939;28;20078;-79
2021/03/28 07:11:11;;;;;;;18.42;3.28;;;;;;;9.69;100.00;102638.69;5259259;28;20024;-79
2021/03/28 07:14:17;;;;;;;11.35;3.88;;;;;;;9.85;100.00;102641.91;5266090;28;20024;-79
2021/03/28 07:17:06;;;;;;;18.42;4.15;;;;;;;9.83;100.00;102642.03;5267532;28;20051;-77
2021/03/28 07:19:50;;;;;;;14.07;4.22;;;;;;;9.90;100.00;102636.22;5269414;28;20032;-77
2021/03/28 07:22:30;;;;;;;16.80;4.25;;;;;;;9.86;100.00;102635.59;5269206;28;20115;-80
2021/03/28 07:25:23;;;;;;;13.55;3.80;;;;;;;9.88;100.00;102638.97;5271552;28;20099;-77
2021/03/28 07:28:06;;;;;;;14.27;3.92;;;;;;;9.96;100.00;102655.34;5269284;28;20039;-78
2021/03/28 07:30:45;;;;;;;10.88;3.40;;;;;;;10.01;100.00;102658.53;5267456;28;20032;-78
2021/03/28 07:33:26;;;;;;;19.77;3.95;;;;;;;9.89;100.00;102646.09;5267010;28;20032;-78
2021/03/28 07:36:27;;;;;;;19.52;3.45;;;;;;;9.76;100.00;102650.66;5266821;28;20027;-78
2021/03/28 07:39:32;;;;;;;13.07;4.07;;;;;;;9.76;100.00;102651.50;5268626;28;20501;-76
2021/03/28 07:42:18;;;;;;;13.23;3.33;;;;;;;9.69;100.00;102644.03;5268246;28;20043;-78
2021/03/28 07:45:20;;;;;;;15.25;3.80;;;;;;;9.71;100.00;102655.53;5254926;28;20063;-78
2021/03/28 07:48:23;;;;;;;16.45;3.85;;;;;;;9.95;100.00;102650.13;5251582;28;20040;-77
2021/03/28 07:51:32;;;;;;;17.80;4.25;;;;;;;10.16;100.00;102628.81;5266942;28;20028;-77
2021/03/28 07:54:27;;;;;;;15.90;4.72;;;;;;;10.36;100.00;102638.84;5266622;28;20042;-78
2021/03/28 07:57:05;;;;;;;13.07;3.35;;;;;;;10.57;100.00;102630.94;5264225;28;20028;-77
2021/03/28 07:59:54;;;;;;;19.98;3.70;;;;;;;10.73;100.00;102641.28;5267525;28;20504;-78
2021/03/28 08:02:35;;;;;;;12.02;3.35;;;;;;;10.59;100.00;102645.94;5268904;28;20073;-77
2021/03/28 08:05:27;;;;;;;15.50;3.25;;;;;;;10.40;100.00;102634.13;5267803;28;20024;-78
2021/03/28 08:08:11;;;;;;;13.80;3.13;;;;;;;10.19;100.00;102647.34;5267866;28;20039;-78
2021/03/28 08:11:02;;;;;;;13.02;3.70;;;;;;;10.27;100.00;102651.16;5243630;28;20246;-79
2021/03/28 08:13:57;;;;;;;17.90;3.20;;;;;;;10.27;100.00;102656.53;5263141;28;20077;-76
2021/03/28 08:16:36;;;;;;;10.27;3.08;;;;;;;10.33;100.00;102665.91;5263081;28;20028;-83
2021/03/28 08:19:18;;;;;;;18.67;3.15;;;;;;;10.48;100.00;102667.38;5265453;28;20077;-79
2021/03/28 08:22:20;;;;;;;12.88;3.70;;;;;;;10.57;100.00;102658.63;5265140;28;20448;-78
2021/03/28 08:24:59;;;;;;;18.52;2.63;;;;;;;10.65;100.00;102659.84;5267598;28;20358;-78
2021/03/28 08:27:49;;;;;;;13.25;2.72;;;;;;;10.74;100.00;102659.94;5268212;28;20457;-81
2021/03/28 08:30:27;;;;;;;15.05;3.30;;;;;;;10.82;100.00;102654.81;5267345;28;20051;-79
2021/03/28 08:33:25;;;;;;;13.00;3.17;;;;;;;10.93;100.00;102653.09;5269024;28;20028;-78
2021/03/28 08:36:23;;;;;;;8.80;2.95;;;;;;;11.03;100.00;102657.59;5269685;28;20058;-78
2021/03/28 08:39:22;;;;;;;14.85;2.72;;;;;;;11.06;100.00;102656.50;5266317;28;20107;-79
2021/03/28 08:42:32;;;;;;;12.70;2.70;;;;;;;10.88;100.00;102646.25;5261216;28;20140;-78
2021/03/28 08:45:26;;;;;;;10.98;2.88;;;;;;;10.97;100.00;102650.03;5261246;28;20036;-77
2021/03/28 08:48:12;;;;;;;14.63;2.72;;;;;;;11.20;100.00;102655.38;5262634;28;20054;-79
2021/03/28 08:51:24;;;;;;;21.13;3.90;;;;;;;11.32;100.00;102659.72;5265206;28;20028;-78
2021/03/28 08:53:56;;;;;;;9.88;1.98;;;;;;;11.47;100.00;102647.69;5265182;28;20036;-79
2021/03/28 08:56:49;;;;;;;13.82;2.72;;;;;;;11.65;100.00;102673.03;5268173;28;20393;-77
2021/03/28 08:59:45;;;;;;;10.00;2.08;;;;;;;11.52;91.69;102653.53;5266940;28;20031;-80
2021/03/28 09:02:43;;;;;;;8.13;1.80;;;;;;;11.61;82.74;102635.78;5266027;28;20101;-78
2021/03/28 09:05:32;;;;;;;6.75;1.58;;;;;;;11.58;76.20;102649.47;5264205;28;20498;-79
2021/03/28 09:08:15;;;;;;;7.28;1.58;;;;;;;11.64;78.13;102663.25;5267112;28;20031;-78
2021/03/28 09:11:12;;;;;;;7.05;1.92;;;;;;;11.48;69.02;102651.22;5256263;28;20032;-80
2021/03/28 09:13:50;;;;;;;7.28;1.73;;;;;;;11.42;72.55;102655.28;5264074;28;20024;-82
2021/03/28 09:16:44;;;;;;;6.47;1.70;;;;;;;11.51;75.20;102651.00;5266430;28;20024;-80
2021/03/28 09:19:26;;;;;;;8.60;1.40;;;;;;;11.78;80.32;102658.56;5268187;28;20542;-80
2021/03/28 09:22:13;;;;;;;11.75;1.60;;;;;;;11.72;73.84;102667.13;5267699;28;20027;-80
2021/03/28 09:24:53;;;;;;;7.28;2.13;;;;;;;11.66;75.43;102663.13;5265646;28;20024;-79
2021/03/28 09:27:32;;;;;;;8.18;1.60;;;;;;;11.68;71.87;102661.16;5267189;28;20235;-80
2021/03/28 09:30:22;;;;;;;4.53;1.10;;;;;;;11.61;74.88;102676.97;5255496;28;20027;-80
2021/03/28 09:33:20;;;;;;;8.70;1.85;;;;;;;11.66;74.09;102658.63;5265848;28;20119;-80
2021/03/28 09:36:13;;;;;;;12.15;2.20;;;;;;;11.82;79.28;102671.63;5268150;28;20043;-79
2021/03/28 09:38:53;;;;;;;15.32;1.95;;;;;;;11.94;77.42;102675.13;5268595;28;20435;-80
2021/03/28 09:41:48;;;;;;;14.55;2.03;;;;;;;12.10;74.60;102669.31;5270919;28;20028;-80
2021/03/28 09:44:29;;;;;;;16.80;6.07;;;;;;;12.26;77.88;102672.38;5269355;28;20034;-81
2021/03/28 09:47:14;;;;;;;9.75;1.63;;;;;;;12.28;73.02;102672.22;5266988;28;20421;-83
2021/03/28 09:50:09;;;;;;;7.33;1.97;;;;;;;12.28;72.27;102674.91;5268459;28;20032;-81
2021/03/28 09:53:00;;;;;;;3.85;1.20;;;;;;;12.57;72.83;102672.38;5268846;28;20281;-81
2021/03/28 09:55:53;;;;;;;14.85;2.08;;;;;;;12.69;69.24;102673.97;5267225;28;20028;-80
2021/03/28 09:58:40;;;;;;;12.07;2.08;;;;;;;12.67;74.80;102674.13;5266458;28;20511;-79
2021/03/28 10:01:27;;;;;;;8.82;1.90;;;;;;;12.59;63.24;102686.53;5255892;28;20126;-82
2021/03/28 10:04:05;;;;;;;11.60;2.40;;;;;;;12.32;68.88;102690.66;5267975;28;20424;-79
2021/03/28 10:06:37;;;;;;;10.48;2.38;;;;;;;12.36;71.35;102678.66;5266634;28;20038;-82
2021/03/28 10:09:17;;;;;;;8.13;2.13;;;;;;;12.56;71.18;102685.00;5267481;28;20027;-82
2021/03/28 10:12:00;;;;;;;7.47;1.63;;;;;;;12.66;66.90;102679.66;5265945;28;20097;-82
2021/03/28 10:14:43;;;;;;;10.75;1.60;;;;;;;12.95;69.51;102688.69;5267367;28;20162;-79
2021/03/28 10:17:26;;;;;;;9.43;2.10;;;;;;;13.10;69.05;102675.69;5270786;28;20024;-79
2021/03/28 10:20:24;;;;;;;5.38;1.20;;;;;;;13.26;68.23;102688.66;5268018;28;20457;-81
2021/03/28 10:23:13;;;;;;;10.00;1.90;;;;;;;13.35;72.10;102689.63;5270343;28;20027;-82
2021/03/28 10:26:10;;;;;;;7.68;1.63;;;;;;;13.53;62.41;102684.41;5267953;28;20024;-79
2021/03/28 10:28:54;;;;;;;6.47;1.50;;;;;;;13.75;62.19;102686.81;5267791;28;20401;-80
2021/03/28 10:31:28;;;;;;;6.90;1.80;;;;;;;13.90;59.12;102668.34;5267431;28;20070;-81
2021/03/28 10:34:23;;;;;;;14.07;1.85;;;;;;;13.83;58.30;102692.38;5266711;28;20044;-79
2021/03/28 10:37:16;;;;;;;8.82;2.08;;;;;;;13.47;56.52;102700.16;5264019;28;20032;-79
2021/03/28 10:40:05;;;;;;;7.35;1.75;;;;;;;13.11;58.47;102696.25;5267796;28;20024;-82
2021/03/28 10:42:45;;;;;;;11.68;1.58;;;;;;;13.30;57.84;102702.69;5268587;28;20030;-80
2021/03/28 10:45:31;;;;;;;8.75;1.67;;;;;;;13.37;62.45;102698.44;5268098;28;20028;-81
2021/03/28 10:48:27;;;;;;;9.00;2.28;;;;;;;13.48;59.01;102709.94;5265943;28;20036;-78
2021/03/28 10:51:42;;;;;;;10.32;1.58;;;;;;;13.47;58.58;102710.94;5265656;28;20408;-80
2021/03/28 10:54:44;;;;;;;14.05;2.05;;;;;;;13.43;66.12;102722.16;5265429;28;20031;-78
2021/03/28 10:57:43;;;;;;;10.32;2.00;;;;;;;13.36;59.04;102704.84;5268297;28;20067;-80
2021/03/28 11:00:52;;;;;;;14.30;2.25;;;;;;;13.27;60.01;102703.81;5269521;28;20024;-81
2021/03/28 11:04:00;;;;;;;12.02;2.47;;;;;;;13.11;59.30;102709.72;5266809;28;20059;-81
2021/03/28 11:06:48;;;;;;;13.40;1.50;;;;;;;13.41;63.49;102706.13;5252439;28;20830;-81
2021/03/28 11:09:36;;;;;;;10.57;1.50;;;;;;;13.77;60.60;102708.28;5263950;28;20039;-83
2021/03/28 11:12:08;;;;;;;8.35;1.95;;;;;;;13.35;59.66;102709.34;5268270;28;20028;-82
2021/03/28 11:14:46;;;;;;;4.07;1.30;;;;;;;13.55;65.85;102715.63;5273721;28;20032;-79
2021/03/28 11:17:36;;;;;;;9.75;2.10;;;;;;;13.74;60.53;102715.66;5273640;28;20016;-81
2021/03/28 11:20:22;;;;;;;9.85;1.98;;;;;;;13.79;61.05;102703.59;5274120;28;20488;-81
2021/03/28 11:23:13;;;;;;;8.68;2.38;;;;;;;13.79;64.45;102698.19;5272460;28;20034;-82
2021/03/28 11:26:16;;;;;;;13.73;1.80;;;;;;;13.57;63.19;102705.56;5273214;28;20031;-83
2021/03/28 11:29:08;;;;;;;9.25;2.22;;;;;;;13.88;64.29;102697.34;5272224;28;20032;-83
2021/03/28 11:32:02;;;;;;;3.90;1.27;;;;;;;13.53;60.30;102700.59;5270302;28;20028;-83
2021/03/28 11:34:55;;;;;;;6.57;2.20;;;;;;;13.21;62.68;102701.66;5268755;28;20020;-81
2021/03/28 11:37:49;;;;;;;8.20;1.70;;;;;;;13.22;62.13;102698.00;5268225;28;20058;-84
2021/03/28 11:40:28;;;;;;;11.02;2.17;;;;;;;13.27;63.83;102693.03;5270180;28;20488;-82
2021/03/28 11:43:06;;;;;;;6.25;2.08;;;;;;;13.32;62.47;102685.38;5270102;28;20046;-83
2021/03/28 11:45:36;;;;;;;7.47;2.03;;;;;;;13.43;68.03;102690.66;5269756;28;20039;-81
2021/03/28 11:48:22;;;;;;;11.77;2.38;;;;;;;13.72;67.20;102682.56;5269210;28;20032;-81
2021/03/28 11:50:56;;;;;;;;;;;;;;;13.98;66.64;102684.69;5269424;28;20092;-81
2021/03/28 11:53:35;;;;;;;7.60;1.90;;;;;;;14.07;63.13;102675.72;5269109;28;19915;-81
2021/03/28 11:56:38;;;;;;;11.80;2.95;;;;;;;13.80;61.49;102686.41;5267025;28;20070;-81
2021/03/28 11:59:31;;;;;;;10.63;2.40;;;;;;;13.83;64.22;102681.56;5268856;28;20561;-82
2021/03/28 12:02:11;;;;;;;13.35;2.97;;;;;;;13.89;64.36;102688.25;5264399;28;20047;-81
2021/03/28 12:04:44;;;;;;;6.75;2.17;;;;;;;14.07;60.62;102688.38;5266856;28;20028;-81
2021/03/28 12:07:27;;;;;;;11.20;1.95;;;;;;;14.10;67.28;102696.16;5269043;28;20049;-79
2021/03/28 12:09:58;;;;;;;10.05;2.63;;;;;;;14.40;67.17;102687.00;5267062;28;20059;-79
2021/03/28 12:12:47;;;;;;;13.32;2.53;;;;;;;14.55;60.04;102677.47;5257856;28;20032;-81
2021/03/28 12:15:42;;;;;;;12.80;2.70;;;;;;;14.55;57.41;102690.97;5269530;28;20061;-82
2021/03/28 12:18:28;;;;;;;15.73;3.00;;;;;;;14.35;61.25;102687.44;5269110;28;20040;-81
2021/03/28 12:20:58;;;;;;;;;;;;;;;14.50;59.53;102682.47;5267072;28;20024;-82
2021/03/28 12:23:34;;;;;;;8.25;2.17;;;;;;;14.67;58.99;102688.94;5266608;28;19960;-81
2021/03/28 12:26:22;;;;;;;11.13;1.95;;;;;;;14.34;59.16;102701.09;5266318;28;20138;-80
2021/03/28 12:29:02;;;;;;;6.28;2.08;;;;;;;14.09;59.73;102689.91;5267520;28;20461;-80
2021/03/28 12:31:41;;;;;;;7.45;2.53;;;;;;;14.05;69.70;102687.66;5266752;28;20375;-80
2021/03/28 12:34:30;;;;;;;10.77;2.50;;;;;;;13.88;65.75;102700.03;5265806;28;20024;-81
2021/03/28 12:37:08;;;;;;;9.35;2.17;;;;;;;13.83;69.70;102691.53;5266709;28;20028;-83
2021/03/28 12:39:43;;;;;;;7.45;1.88;;;;;;;13.89;74.03;102697.19;5265161;28;20087;-81
2021/03/28 12:42:18;;;;;;;;;;;;;;;13.84;70.55;102698.63;5268190;28;20054;-81
2021/03/28 12:44:53;;;;;;;8.98;2.53;;;;;;;13.95;72.55;102691.22;5269005;28;19943;-81
2021/03/28 12:47:29;;;;;;;9.82;2.30;;;;;;;14.04;72.33;102675.16;5267792;28;20051;-80
2021/03/28 12:50:14;;;;;;;12.85;2.35;;;;;;;14.09;69.65;102683.69;5267242;28;20028;-81